TTW305 RCKH-RKSS
Flight info
| Callsign | TTW305 |
|---|---|
| Flight time | N/A |
| Altitude | 39000 |
| Route | TNN W4 ANLOT B1 APU L3 SALMI Y743 BOLUT Y741 ATOTI Y722 OLMEN |
| Aircraft | A20N/M-SDE2E3FGHIRWXY/LB1 |
Departure
| Time | N/A |
|---|---|
| Airport | Kaohsiung International Airport (RCKH) |
Arrival
| Time | 2026-05-03 21:00 |
|---|---|
| Airport | Gimpo International Airport (RKSS) |
| Time | Latitude | Longitude | Altitude | Speed | Heading |
|---|---|---|---|---|---|
| 2026-05-03 20:15 | 33.50645 | 125.96973 | 39018 ft | 517 kts | 6° |
| 2026-05-03 20:15 | 33.57379 | 126.00054 | 39019 ft | 518 kts | 7° |
| 2026-05-03 20:16 | 33.64113 | 126.03139 | 39011 ft | 518 kts | 7° |
| 2026-05-03 20:16 | 33.70810 | 126.06213 | 39007 ft | 518 kts | 7° |
| 2026-05-03 20:17 | 33.77540 | 126.09307 | 39009 ft | 518 kts | 7° |
| 2026-05-03 20:17 | 33.84267 | 126.12405 | 38999 ft | 518 kts | 7° |
| 2026-05-03 20:18 | 33.90994 | 126.15509 | 38994 ft | 517 kts | 7° |
| 2026-05-03 20:18 | 33.97721 | 126.18617 | 38989 ft | 517 kts | 7° |
| 2026-05-03 20:19 | 34.04437 | 126.21725 | 38984 ft | 517 kts | 7° |
| 2026-05-03 20:19 | 34.11151 | 126.24839 | 38974 ft | 517 kts | 7° |
| 2026-05-03 20:20 | 34.17849 | 126.27950 | 38970 ft | 516 kts | 7° |
| 2026-05-03 20:20 | 34.24565 | 126.31074 | 38964 ft | 516 kts | 7° |
| 2026-05-03 20:21 | 34.31270 | 126.34198 | 38964 ft | 516 kts | 8° |
| 2026-05-03 20:21 | 34.37968 | 126.37324 | 38965 ft | 516 kts | 8° |
| 2026-05-03 20:22 | 34.44672 | 126.40459 | 38961 ft | 516 kts | 8° |
| 2026-05-03 20:22 | 34.51324 | 126.43575 | 38959 ft | 516 kts | 8° |
| 2026-05-03 20:23 | 34.58028 | 126.46721 | 38957 ft | 516 kts | 8° |
| 2026-05-03 20:23 | 34.64722 | 126.49868 | 38956 ft | 516 kts | 8° |
| 2026-05-03 20:24 | 34.71421 | 126.53023 | 38964 ft | 516 kts | 9° |
| 2026-05-03 20:24 | 34.78112 | 126.56178 | 38968 ft | 515 kts | 9° |
| 2026-05-03 20:25 | 34.84777 | 126.59331 | 38964 ft | 513 kts | 9° |
| 2026-05-03 20:25 | 34.91429 | 126.62478 | 38963 ft | 513 kts | 9° |
| 2026-05-03 20:26 | 34.98084 | 126.65633 | 38960 ft | 513 kts | 9° |
| 2026-05-03 20:26 | 35.04726 | 126.68789 | 38962 ft | 512 kts | 9° |
| 2026-05-03 20:27 | 35.11327 | 126.71931 | 38955 ft | 512 kts | 9° |
| 2026-05-03 20:27 | 35.17960 | 126.75092 | 38946 ft | 512 kts | 10° |
| 2026-05-03 20:28 | 35.24587 | 126.78256 | 38944 ft | 511 kts | 10° |
| 2026-05-03 20:28 | 35.31208 | 126.81422 | 38935 ft | 510 kts | 10° |
| 2026-05-03 20:29 | 35.37822 | 126.84587 | 38930 ft | 511 kts | 10° |
| 2026-05-03 20:29 | 35.44453 | 126.87766 | 38934 ft | 511 kts | 11° |
| 2026-05-03 20:30 | 35.51146 | 126.90366 | 38935 ft | 495 kts | 359° |
| 2026-05-03 20:30 | 35.57849 | 126.91402 | 38925 ft | 482 kts | 352° |
| 2026-05-03 20:31 | 35.64494 | 126.92138 | 38918 ft | 483 kts | 353° |
| 2026-05-03 20:31 | 35.71182 | 126.92882 | 38884 ft | 483 kts | 353° |
| 2026-05-03 20:31 | 35.74543 | 126.93251 | 38696 ft | 485 kts | 353° |
| 2026-05-03 20:32 | 35.77906 | 126.93621 | 38459 ft | 485 kts | 353° |
| 2026-05-03 20:32 | 35.81271 | 126.93994 | 38194 ft | 484 kts | 353° |
| 2026-05-03 20:32 | 35.84624 | 126.94364 | 37934 ft | 485 kts | 353° |
| 2026-05-03 20:32 | 35.87996 | 126.94734 | 37507 ft | 487 kts | 353° |
| 2026-05-03 20:33 | 35.91378 | 126.95105 | 36815 ft | 490 kts | 352° |
| 2026-05-03 20:33 | 35.94680 | 126.95467 | 36004 ft | 494 kts | 352° |
| 2026-05-03 20:33 | 35.98224 | 126.95857 | 35090 ft | 499 kts | 352° |
| 2026-05-03 20:33 | 36.01695 | 126.96243 | 34284 ft | 502 kts | 352° |
| 2026-05-03 20:34 | 36.05175 | 126.96631 | 33429 ft | 503 kts | 352° |
| 2026-05-03 20:34 | 36.08667 | 126.97022 | 32573 ft | 503 kts | 352° |
| 2026-05-03 20:34 | 36.12158 | 126.97412 | 31667 ft | 505 kts | 352° |
| 2026-05-03 20:34 | 36.15660 | 126.97801 | 30756 ft | 506 kts | 352° |
| 2026-05-03 20:35 | 36.19165 | 126.98193 | 30130 ft | 502 kts | 352° |
| 2026-05-03 20:35 | 36.22631 | 126.98584 | 29334 ft | 499 kts | 353° |
| 2026-05-03 20:35 | 36.26016 | 126.98965 | 28586 ft | 494 kts | 353° |
| 2026-05-03 20:35 | 36.29481 | 126.99348 | 27755 ft | 492 kts | 353° |
| 2026-05-03 20:36 | 36.32818 | 126.99723 | 27270 ft | 482 kts | 353° |
| 2026-05-03 20:36 | 36.35065 | 126.99977 | 26868 ft | 478 kts | 353° |
| 2026-05-03 20:36 | 36.38360 | 127.00311 | 26257 ft | 468 kts | 351° |
| 2026-05-03 20:36 | 36.42581 | 127.00230 | 25424 ft | 454 kts | 346° |
| 2026-05-03 20:37 | 36.45725 | 127.00105 | 24860 ft | 448 kts | 347° |
| 2026-05-03 20:37 | 36.48831 | 126.99988 | 24248 ft | 445 kts | 347° |
| 2026-05-03 20:37 | 36.51909 | 126.99872 | 23633 ft | 441 kts | 348° |
| 2026-05-03 20:37 | 36.54962 | 126.99755 | 22923 ft | 438 kts | 348° |
| 2026-05-03 20:38 | 36.57987 | 126.99641 | 22401 ft | 430 kts | 349° |
| 2026-05-03 20:38 | 36.60952 | 126.99533 | 21805 ft | 423 kts | 350° |
| 2026-05-03 20:38 | 36.63870 | 126.99426 | 21210 ft | 416 kts | 351° |
| 2026-05-03 20:38 | 36.66748 | 126.99321 | 20620 ft | 410 kts | 351° |
| 2026-05-03 20:39 | 36.69575 | 126.99217 | 20041 ft | 404 kts | 352° |
| 2026-05-03 20:39 | 36.72379 | 126.99459 | 19473 ft | 407 kts | 6° |
| 2026-05-03 20:39 | 36.75044 | 127.00616 | 18994 ft | 408 kts | 21° |
| 2026-05-03 20:39 | 36.77397 | 127.02608 | 18419 ft | 411 kts | 36° |
| 2026-05-03 20:40 | 36.79445 | 127.05020 | 17807 ft | 408 kts | 40° |
| 2026-05-03 20:40 | 36.81421 | 127.07532 | 17211 ft | 402 kts | 40° |
| 2026-05-03 20:40 | 36.83375 | 127.09974 | 16634 ft | 395 kts | 39° |
| 2026-05-03 20:40 | 36.85332 | 127.12338 | 16072 ft | 388 kts | 38° |
| 2026-05-03 20:41 | 36.87285 | 127.14636 | 15516 ft | 382 kts | 38° |
| 2026-05-03 20:41 | 36.89219 | 127.16880 | 14972 ft | 377 kts | 37° |
| 2026-05-03 20:41 | 36.91132 | 127.19087 | 14423 ft | 372 kts | 37° |
| 2026-05-03 20:41 | 36.93029 | 127.21274 | 13886 ft | 368 kts | 37° |
| 2026-05-03 20:42 | 36.94902 | 127.23433 | 13326 ft | 364 kts | 37° |
| 2026-05-03 20:42 | 36.96749 | 127.25566 | 12806 ft | 359 kts | 37° |
| 2026-05-03 20:42 | 36.98547 | 127.27654 | 12578 ft | 346 kts | 37° |
| 2026-05-03 20:42 | 37.00308 | 127.29701 | 12405 ft | 348 kts | 37° |
| 2026-05-03 20:43 | 37.02088 | 127.31765 | 12174 ft | 347 kts | 37° |
| 2026-05-03 20:43 | 37.03255 | 127.33122 | 12023 ft | 345 kts | 37° |
| 2026-05-03 20:43 | 37.05597 | 127.35847 | 11724 ft | 343 kts | 37° |
| 2026-05-03 20:43 | 37.07321 | 127.37858 | 11615 ft | 334 kts | 37° |
| 2026-05-03 20:44 | 37.12225 | 127.43416 | 11104 ft | 292 kts | 24° |
| 2026-05-03 20:44 | 37.13429 | 127.44111 | 10826 ft | 282 kts | 9° |
| 2026-05-03 20:45 | 37.15921 | 127.44394 | 10489 ft | 263 kts | 354° |
| 2026-05-03 20:45 | 37.17764 | 127.44391 | 10313 ft | 265 kts | 354° |
| 2026-05-03 20:45 | 37.19603 | 127.44398 | 10138 ft | 263 kts | 354° |
| 2026-05-03 20:45 | 37.20814 | 127.44404 | 10022 ft | 262 kts | 353° |
| 2026-05-03 20:46 | 37.23061 | 127.43624 | 9803 ft | 251 kts | 325° |
| 2026-05-03 20:46 | 37.24317 | 127.42146 | 9630 ft | 249 kts | 306° |
| 2026-05-03 20:46 | 37.25296 | 127.40362 | 9470 ft | 248 kts | 305° |
| 2026-05-03 20:46 | 37.26272 | 127.38586 | 9305 ft | 247 kts | 306° |
| 2026-05-03 20:47 | 37.26917 | 127.37410 | 9193 ft | 246 kts | 304° |
| 2026-05-03 20:47 | 37.27701 | 127.34715 | 8980 ft | 251 kts | 280° |
| 2026-05-03 20:47 | 37.27672 | 127.33252 | 8864 ft | 257 kts | 267° |
| 2026-05-03 20:47 | 37.27227 | 127.30287 | 8647 ft | 258 kts | 265° |
| 2026-05-03 20:48 | 37.27007 | 127.28826 | 8531 ft | 257 kts | 266° |
| 2026-05-03 20:48 | 37.26791 | 127.27362 | 8412 ft | 257 kts | 266° |
| 2026-05-03 20:49 | 37.25650 | 127.17330 | 7873 ft | 218 kts | 291° |
| 2026-05-03 20:49 | 37.26231 | 127.15903 | 7800 ft | 202 kts | 311° |
| 2026-05-03 20:49 | 37.27225 | 127.14708 | 7538 ft | 198 kts | 318° |
| 2026-05-03 20:50 | 37.28254 | 127.13553 | 7176 ft | 198 kts | 318° |
| 2026-05-03 20:50 | 37.28932 | 127.12785 | 6965 ft | 198 kts | 318° |
| 2026-05-03 20:50 | 37.30286 | 127.11249 | 6586 ft | 196 kts | 318° |
| 2026-05-03 20:50 | 37.31265 | 127.10099 | 6445 ft | 188 kts | 317° |
| 2026-05-03 20:51 | 37.32190 | 127.08956 | 6126 ft | 186 kts | 316° |
| 2026-05-03 20:51 | 37.33128 | 127.07829 | 5704 ft | 187 kts | 318° |
| 2026-05-03 20:51 | 37.34057 | 127.06689 | 5386 ft | 186 kts | 316° |
| 2026-05-03 20:51 | 37.34952 | 127.05566 | 5257 ft | 176 kts | 316° |
| 2026-05-03 20:52 | 37.35812 | 127.04491 | 5033 ft | 174 kts | 316° |
| 2026-05-03 20:52 | 37.36665 | 127.03423 | 4751 ft | 170 kts | 317° |
| 2026-05-03 20:52 | 37.37230 | 127.02712 | 4654 ft | 179 kts | 316° |
| 2026-05-03 20:52 | 37.38102 | 127.01627 | 4573 ft | 172 kts | 316° |
| 2026-05-03 20:53 | 37.39247 | 127.00190 | 4518 ft | 176 kts | 316° |
| 2026-05-03 20:53 | 37.40096 | 126.99127 | 4379 ft | 169 kts | 316° |
| 2026-05-03 20:53 | 37.40913 | 126.98103 | 4212 ft | 163 kts | 316° |
| 2026-05-03 20:53 | 37.41698 | 126.97119 | 4055 ft | 154 kts | 317° |
| 2026-05-03 20:54 | 37.42451 | 126.96175 | 3845 ft | 156 kts | 317° |
| 2026-05-03 20:54 | 37.43967 | 126.94274 | 3418 ft | 146 kts | 317° |
| 2026-05-03 20:54 | 37.44661 | 126.93404 | 3217 ft | 135 kts | 317° |
| 2026-05-03 20:55 | 37.45298 | 126.92605 | 3078 ft | 132 kts | 316° |
| 2026-05-03 20:55 | 37.45916 | 126.91829 | 2898 ft | 117 kts | 316° |
| 2026-05-03 20:55 | 37.46469 | 126.91138 | 2742 ft | 112 kts | 317° |
| 2026-05-03 20:55 | 37.47030 | 126.90434 | 2587 ft | 111 kts | 316° |
| 2026-05-03 20:56 | 37.47576 | 126.89745 | 2446 ft | 111 kts | 316° |
| 2026-05-03 20:56 | 37.47940 | 126.89283 | 2345 ft | 113 kts | 316° |
| 2026-05-03 20:56 | 37.48229 | 126.88916 | 2272 ft | 115 kts | 316° |
| 2026-05-03 20:57 | 37.48810 | 126.88178 | 1859 ft | 124 kts | 315° |
| 2026-05-03 20:57 | 37.49411 | 126.87420 | 1555 ft | 119 kts | 314° |
| 2026-05-03 20:57 | 37.49979 | 126.86682 | 1259 ft | 116 kts | 313° |
| 2026-05-03 20:57 | 37.50632 | 126.85883 | 1170 ft | 134 kts | 316° |
| 2026-05-03 20:58 | 37.51283 | 126.85083 | 1021 ft | 131 kts | 315° |
| 2026-05-03 20:58 | 37.51936 | 126.84279 | 867 ft | 128 kts | 314° |
| 2026-05-03 20:58 | 37.52561 | 126.83494 | 677 ft | 127 kts | 313° |
| 2026-05-03 20:58 | 37.53180 | 126.82704 | 534 ft | 126 kts | 313° |
| 2026-05-03 20:59 | 37.53814 | 126.81923 | 371 ft | 128 kts | 312° |
| 2026-05-03 20:59 | 37.54449 | 126.81124 | 186 ft | 129 kts | 312° |
| 2026-05-03 20:59 | 37.55074 | 126.80335 | 50 ft | 122 kts | 312° |
| 2026-05-03 20:59 | 37.55554 | 126.79728 | 47 ft | 69 kts | 315° |
| 2026-05-03 21:00 | 37.55753 | 126.79480 | 47 ft | 11 kts | 315° |
| 2026-05-03 21:00 | 37.55758 | 126.79474 | 49 ft | 0 kts | 315° |
| 2026-05-03 21:00 | 37.55859 | 126.79346 | 48 ft | 27 kts | 317° |
| 2026-05-03 21:00 | 37.56016 | 126.79152 | 46 ft | 34 kts | 319° |
| 2026-05-03 21:01 | 37.56212 | 126.79000 | 46 ft | 28 kts | 342° |
| 2026-05-03 21:01 | 37.56331 | 126.79029 | 45 ft | 19 kts | 84° |
| 2026-05-03 21:01 | 37.56287 | 126.79124 | 45 ft | 8 kts | 88° |
| 2026-05-03 21:01 | 37.56323 | 126.79186 | 45 ft | 13 kts | 44° |
| 2026-05-03 21:02 | 37.56391 | 126.79270 | 45 ft | 17 kts | 45° |
| 2026-05-03 21:02 | 37.56485 | 126.79390 | 45 ft | 21 kts | 45° |
| 2026-05-03 21:02 | 37.56572 | 126.79497 | 44 ft | 15 kts | 47° |
| 2026-05-03 21:02 | 37.56659 | 126.79606 | 43 ft | 20 kts | 44° |
| 2026-05-03 21:03 | 37.56760 | 126.79730 | 45 ft | 15 kts | 52° |
| 2026-05-03 21:03 | 37.56749 | 126.79844 | 43 ft | 10 kts | 133° |
| 2026-05-03 21:03 | 37.56685 | 126.79911 | 45 ft | 10 kts | 152° |
| 2026-05-03 21:03 | 37.56624 | 126.79932 | 45 ft | 5 kts | 164° |
| 2026-05-03 21:04 | 37.56617 | 126.79935 | 45 ft | 0 kts | 164° |